Time;durP1;ratioP1;P1;durP2;ratioP2;P2;SDS_P1;SDS_P2;PMS_P1;PMS_P2;Temp;Humidity;BMP_temperature;BMP_pressure;BME280_temperature;BME280_humidity;BME280_pressure;Samples;Min_cycle;Max_cycle;Signal;HPM_P1;HPM_P2
2022/07/06 00:01:58;;;;;;;3.25;1.92;;;;;;;;;;5043723;28;20469;-71
2022/07/06 00:04:25;;;;;;;4.05;2.33;;;;;;;;;;5043491;28;20441;-71
2022/07/06 00:06:52;;;;;;;2.80;2.10;;;;;;;;;;5043326;28;20417;-71
2022/07/06 00:09:19;;;;;;;4.40;2.40;;;;;;;;;;5044418;28;20418;-71
2022/07/06 00:11:46;;;;;;;4.20;1.83;;;;;;;;;;5043994;28;20885;-71
2022/07/06 00:14:14;;;;;;;2.50;1.77;;;;;;;;;;5043424;28;20523;-71
2022/07/06 00:16:42;;;;;;;3.30;1.92;;;;;;;;;;5043000;28;20420;-71
2022/07/06 00:19:09;;;;;;;2.90;2.13;;;;;;;;;;5044224;28;20501;-71
2022/07/06 00:21:36;;;;;;;3.05;2.40;;;;;;;;;;5043670;28;20413;-70
2022/07/06 00:24:04;;;;;;;6.35;2.10;;;;;;;;;;5042872;28;20477;-73
2022/07/06 00:26:31;;;;;;;2.30;1.90;;;;;;;;;;5044158;28;20422;-71
2022/07/06 00:28:58;;;;;;;3.85;2.70;;;;;;;;;;5043645;28;20411;-73
2022/07/06 00:31:25;;;;;;;3.20;2.33;;;;;;;;;;5043065;28;20418;-73
2022/07/06 00:33:53;;;;;;;4.70;2.67;;;;;;;;;;5042872;28;20488;-73
2022/07/06 00:36:20;;;;;;;3.88;2.83;;;;;;;;;;5043951;28;20899;-73
2022/07/06 00:38:47;;;;;;;3.17;2.35;;;;;;;;;;5045020;28;20471;-73
2022/07/06 00:41:15;;;;;;;5.13;2.50;;;;;;;;;;5042985;28;20781;-73
2022/07/06 00:43:49;;;;;;;3.53;2.60;;;;;;;;;;5042409;28;20440;-73
2022/07/06 00:46:16;;;;;;;4.80;2.45;;;;;;;;;;5043032;28;20486;-74
2022/07/06 00:48:43;;;;;;;3.28;2.42;;;;;;;;;;5043322;28;20765;-73
2022/07/06 00:51:12;;;;;;;2.67;2.30;;;;;;;;;;5043227;28;20413;-73
2022/07/06 00:53:39;;;;;;;3.45;2.42;;;;;;;;;;5042217;28;20437;-70
2022/07/06 00:56:06;;;;;;;3.28;2.70;;;;;;;;;;5043317;28;20425;-72
2022/07/06 00:58:33;;;;;;;3.13;2.33;;;;;;;;;;5042792;28;20803;-71
2022/07/06 01:01:00;;;;;;;2.78;2.58;;;;;;;;;;5042838;28;20769;-74
2022/07/06 01:03:28;;;;;;;2.75;2.30;;;;;;;;;;5045116;28;20545;-70
2022/07/06 01:05:55;;;;;;;3.28;2.70;;;;;;;;;;5047700;28;20500;-71
2022/07/06 01:08:24;;;;;;;3.83;2.70;;;;;;;;;;5047927;28;20669;-72
2022/07/06 01:10:51;;;;;;;3.17;2.40;;;;;;;;;;5046695;28;20432;-70
2022/07/06 01:13:19;;;;;;;3.20;2.90;;;;;;;;;;5044942;28;20527;-71
2022/07/06 01:15:46;;;;;;;2.90;2.70;;;;;;;;;;5047419;28;20443;-71
2022/07/06 01:18:13;;;;;;;3.63;2.67;;;;;;;;;;5047596;28;20421;-71
2022/07/06 01:20:42;;;;;;;3.78;3.00;;;;;;;;;;5045886;28;20421;-71
2022/07/06 01:23:09;;;;;;;3.20;2.90;;;;;;;;;;5045952;28;20596;-71
2022/07/06 01:25:36;;;;;;;3.20;2.78;;;;;;;;;;5046972;28;20893;-71
2022/07/06 01:28:03;;;;;;;3.92;2.65;;;;;;;;;;5046687;28;20516;-71
2022/07/06 01:30:30;;;;;;;3.10;2.80;;;;;;;;;;5046691;28;20432;-71
2022/07/06 01:32:57;;;;;;;3.33;2.80;;;;;;;;;;5046297;28;20435;-71
2022/07/06 01:35:26;;;;;;;3.37;3.00;;;;;;;;;;5047919;28;20449;-70
2022/07/06 01:37:54;;;;;;;3.53;3.13;;;;;;;;;;5047272;28;20405;-72
2022/07/06 01:40:21;;;;;;;5.22;3.30;;;;;;;;;;5045932;28;20903;-71
2022/07/06 01:42:48;;;;;;;3.78;2.90;;;;;;;;;;5045867;28;20912;-71
2022/07/06 01:45:15;;;;;;;4.93;3.10;;;;;;;;;;5046858;28;20469;-71
2022/07/06 01:47:43;;;;;;;4.35;3.53;;;;;;;;;;5046813;28;20757;-70
2022/07/06 01:50:10;;;;;;;3.40;2.95;;;;;;;;;;5047012;28;20605;-71
2022/07/06 01:52:37;;;;;;;4.70;3.00;;;;;;;;;;5045699;28;20429;-71
2022/07/06 01:55:06;;;;;;;3.85;3.00;;;;;;;;;;5046533;28;20453;-71
2022/07/06 01:57:33;;;;;;;3.53;2.70;;;;;;;;;;5046928;28;20786;-71
2022/07/06 02:00:00;;;;;;;4.38;3.00;;;;;;;;;;5044546;28;20429;-70
2022/07/06 02:02:28;;;;;;;4.32;3.20;;;;;;;;;;5046128;28;20417;-71
2022/07/06 02:04:55;;;;;;;3.72;3.42;;;;;;;;;;5046129;28;20508;-71
2022/07/06 02:07:22;;;;;;;3.90;3.10;;;;;;;;;;5046134;28;20461;-71
2022/07/06 02:09:49;;;;;;;4.97;3.10;;;;;;;;;;5045197;28;20434;-71
2022/07/06 02:12:17;;;;;;;3.30;3.00;;;;;;;;;;5046101;28;20421;-71
2022/07/06 02:14:44;;;;;;;3.78;3.10;;;;;;;;;;5046208;28;20445;-71
2022/07/06 02:17:11;;;;;;;3.33;3.03;;;;;;;;;;5047077;28;20448;-70
2022/07/06 02:19:39;;;;;;;4.10;2.60;;;;;;;;;;5046154;28;20413;-71
2022/07/06 02:22:06;;;;;;;3.60;3.00;;;;;;;;;;5045806;28;20672;-71
2022/07/06 02:24:33;;;;;;;3.10;2.80;;;;;;;;;;5046138;28;20413;-71
2022/07/06 02:27:00;;;;;;;3.20;2.92;;;;;;;;;;5045989;28;20428;-72
2022/07/06 02:29:28;;;;;;;4.20;2.80;;;;;;;;;;5044972;28;20420;-71
2022/07/06 02:31:55;;;;;;;3.50;3.20;;;;;;;;;;5044746;28;20425;-71
2022/07/06 02:34:23;;;;;;;4.47;3.40;;;;;;;;;;5046165;28;20425;-71
2022/07/06 02:36:50;;;;;;;3.67;3.25;;;;;;;;;;5046337;28;20467;-71
2022/07/06 02:39:17;;;;;;;3.33;2.80;;;;;;;;;;5045921;28;20876;-71
2022/07/06 02:41:44;;;;;;;3.50;3.20;;;;;;;;;;5043984;28;20429;-71
2022/07/06 02:44:11;;;;;;;3.40;2.90;;;;;;;;;;5045270;28;20417;-71
2022/07/06 02:46:39;;;;;;;3.60;3.05;;;;;;;;;;5045783;28;20492;-73
2022/07/06 02:49:06;;;;;;;3.60;3.30;;;;;;;;;;5045550;28;20528;-70
2022/07/06 02:51:33;;;;;;;5.25;3.50;;;;;;;;;;5043205;28;20504;-73
2022/07/06 02:54:01;;;;;;;3.70;3.30;;;;;;;;;;5045367;28;20425;-70
2022/07/06 02:56:28;;;;;;;3.75;3.38;;;;;;;;;;5045392;28;20428;-70
2022/07/06 02:58:55;;;;;;;3.40;3.10;;;;;;;;;;5045268;28;20417;-70
2022/07/06 03:01:22;;;;;;;3.53;3.22;;;;;;;;;;5044222;28;20489;-70
2022/07/06 03:03:51;;;;;;;4.15;3.35;;;;;;;;;;5044942;28;20430;-73
2022/07/06 03:06:18;;;;;;;3.50;3.00;;;;;;;;;;5045123;28;20440;-70
2022/07/06 03:08:45;;;;;;;3.70;3.30;;;;;;;;;;5043100;28;20429;-73
2022/07/06 03:11:12;;;;;;;3.70;3.40;;;;;;;;;;5043847;28;20425;-70
2022/07/06 03:13:39;;;;;;;5.10;3.60;;;;;;;;;;5044624;28;20433;-73
2022/07/06 03:16:06;;;;;;;4.57;3.10;;;;;;;;;;5045701;28;20417;-73
2022/07/06 03:18:33;;;;;;;4.22;3.33;;;;;;;;;;5044553;28;20883;-72
2022/07/06 03:21:03;;;;;;;3.88;3.22;;;;;;;;;;5044566;28;20476;-72
2022/07/06 03:23:31;;;;;;;4.53;3.40;;;;;;;;;;5045455;28;20895;-73
2022/07/06 03:25:58;;;;;;;3.60;3.30;;;;;;;;;;5044150;28;20413;-72
2022/07/06 03:28:25;;;;;;;5.22;3.40;;;;;;;;;;5043629;28;20501;-73
2022/07/06 03:30:52;;;;;;;3.53;3.22;;;;;;;;;;5045574;28;20436;-72
2022/07/06 03:33:19;;;;;;;3.97;2.93;;;;;;;;;;5045208;28;20437;-72
2022/07/06 03:35:46;;;;;;;4.68;3.30;;;;;;;;;;5045450;28;20846;-73
2022/07/06 03:38:15;;;;;;;4.60;3.08;;;;;;;;;;5044349;28;20440;-72
2022/07/06 03:40:42;;;;;;;3.20;2.90;;;;;;;;;;5044637;28;20845;-73
2022/07/06 03:43:09;;;;;;;3.50;3.20;;;;;;;;;;5045432;28;20409;-72
2022/07/06 03:45:36;;;;;;;3.70;3.30;;;;;;;;;;5044623;28;20428;-72
2022/07/06 03:48:03;;;;;;;4.05;3.13;;;;;;;;;;5043985;28;20912;-72
2022/07/06 03:50:30;;;;;;;4.65;3.40;;;;;;;;;;5044206;28;20440;-73
2022/07/06 03:52:57;;;;;;;4.40;3.30;;;;;;;;;;5044069;28;20477;-72
2022/07/06 03:55:26;;;;;;;3.50;3.20;;;;;;;;;;5044243;28;20504;-73
2022/07/06 03:57:53;;;;;;;3.63;3.08;;;;;;;;;;5043855;28;20500;-73
2022/07/06 04:00:20;;;;;;;3.95;3.03;;;;;;;;;;5043120;28;20413;-73
2022/07/06 04:02:47;;;;;;;3.80;3.40;;;;;;;;;;5043694;28;20819;-73
2022/07/06 04:05:15;;;;;;;3.63;3.33;;;;;;;;;;5044427;28;20414;-72
2022/07/06 04:07:42;;;;;;;4.72;3.35;;;;;;;;;;5040984;28;20521;-72
2022/07/06 04:10:09;;;;;;;4.80;3.60;;;;;;;;;;5047875;28;20932;-73
2022/07/06 04:12:42;;;;;;;5.88;3.72;;;;;;;;;;5050132;28;20440;-72
2022/07/06 04:15:10;;;;;;;4.50;3.53;;;;;;;;;;5048237;28;20457;-73
2022/07/06 04:17:52;;;;;;;4.35;3.80;;;;;;;;;;5047775;28;20428;-73
2022/07/06 04:20:19;;;;;;;6.00;5.10;;;;;;;;;;5043228;28;20425;-73
2022/07/06 04:22:46;;;;;;;4.00;3.20;;;;;;;;;;5043422;28;20420;-73
2022/07/06 04:25:14;;;;;;;4.40;3.50;;;;;;;;;;5056701;28;20605;-73
2022/07/06 04:27:42;;;;;;;4.63;3.40;;;;;;;;;;5046742;28;20433;-72
2022/07/06 04:30:10;;;;;;;4.10;3.40;;;;;;;;;;5042854;28;20492;-73
2022/07/06 04:32:37;;;;;;;5.20;3.20;;;;;;;;;;5046597;28;20482;-73
2022/07/06 04:35:05;;;;;;;4.00;3.10;;;;;;;;;;5048184;28;20436;-72
2022/07/06 04:37:32;;;;;;;3.80;3.38;;;;;;;;;;5041969;28;20433;-73
2022/07/06 04:39:59;;;;;;;6.20;3.70;;;;;;;;;;5035386;28;20535;-73
2022/07/06 04:42:26;;;;;;;4.45;3.80;;;;;;;;;;5043696;28;20885;-73
2022/07/06 04:44:54;;;;;;;3.90;3.50;;;;;;;;;;5043370;28;20458;-73
2022/07/06 04:47:22;;;;;;;6.90;3.78;;;;;;;;;;5042324;28;20710;-73
2022/07/06 04:49:49;;;;;;;4.40;3.20;;;;;;;;;;5042947;28;20821;-73
2022/07/06 04:52:16;;;;;;;3.92;3.60;;;;;;;;;;5042867;28;20505;-72
2022/07/06 04:54:43;;;;;;;4.47;3.50;;;;;;;;;;5042430;28;20473;-73
2022/07/06 04:57:10;;;;;;;4.25;3.60;;;;;;;;;;5040702;28;20907;-73
2022/07/06 04:59:37;;;;;;;4.57;3.63;;;;;;;;;;5042088;28;20535;-72
2022/07/06 05:02:06;;;;;;;4.57;3.53;;;;;;;;;;5042099;28;20432;-73
2022/07/06 05:04:33;;;;;;;5.15;3.40;;;;;;;;;;5043099;28;20413;-73
2022/07/06 05:07:00;;;;;;;5.93;4.03;;;;;;;;;;5042700;28;20577;-73
2022/07/06 05:09:27;;;;;;;5.53;4.00;;;;;;;;;;5043620;28;20892;-73
2022/07/06 05:11:54;;;;;;;5.15;3.55;;;;;;;;;;5043558;28;20470;-73
2022/07/06 05:14:22;;;;;;;4.90;3.72;;;;;;;;;;5043527;28;20444;-73
2022/07/06 05:16:49;;;;;;;7.15;3.50;;;;;;;;;;5041592;28;20433;-72
2022/07/06 05:19:17;;;;;;;4.90;3.53;;;;;;;;;;5043127;28;20409;-73
2022/07/06 05:21:44;;;;;;;6.03;3.60;;;;;;;;;;5042372;28;20413;-73
2022/07/06 05:24:11;;;;;;;5.78;3.80;;;;;;;;;;5042850;28;20413;-72
2022/07/06 05:26:38;;;;;;;5.05;4.20;;;;;;;;;;5041493;28;20492;-74
2022/07/06 05:29:06;;;;;;;5.90;3.40;;;;;;;;;;5041023;28;20504;-74
2022/07/06 05:31:33;;;;;;;6.45;3.50;;;;;;;;;;5041017;28;20748;-73
2022/07/06 05:34:00;;;;;;;6.00;3.33;;;;;;;;;;5034894;28;20436;-73
2022/07/06 05:36:28;;;;;;;3.83;3.00;;;;;;;;;;5043696;28;20723;-74
2022/07/06 05:38:55;;;;;;;4.28;3.08;;;;;;;;;;5042851;28;20433;-73
2022/07/06 05:41:23;;;;;;;4.60;3.20;;;;;;;;;;5041869;28;20443;-72
2022/07/06 05:43:50;;;;;;;7.43;6.65;;;;;;;;;;5043374;28;20448;-74
2022/07/06 05:46:17;;;;;;;5.00;4.60;;;;;;;;;;5043382;28;20441;-72
2022/07/06 05:51:29;;;;;;;4.63;3.00;;;;;;;;;;5014669;28;20421;-72
2022/07/06 05:53:57;;;;;;;2.83;2.50;;;;;;;;;;5047053;28;20433;-74
2022/07/06 05:56:24;;;;;;;2.67;2.40;;;;;;;;;;5047361;28;20417;-74
2022/07/06 05:58:51;;;;;;;3.45;2.00;;;;;;;;;;5045932;28;20443;-74
2022/07/06 06:01:18;;;;;;;4.15;2.10;;;;;;;;;;5044847;28;20413;-73
2022/07/06 06:03:45;;;;;;;4.73;2.70;;;;;;;;;;5046486;28;20412;-74
2022/07/06 06:06:12;;;;;;;4.57;2.80;;;;;;;;;;5047446;28;20443;-74
2022/07/06 06:08:41;;;;;;;4.07;2.38;;;;;;;;;;5046004;28;20730;-73
2022/07/06 06:11:08;;;;;;;3.78;2.13;;;;;;;;;;5044436;28;20627;-74
2022/07/06 06:13:35;;;;;;;2.78;2.15;;;;;;;;;;5046984;28;20444;-74
2022/07/06 06:16:02;;;;;;;3.47;1.73;;;;;;;;;;5047107;28;20413;-73
2022/07/06 06:18:29;;;;;;;4.88;1.58;;;;;;;;;;5047155;28;20492;-74
2022/07/06 06:20:56;;;;;;;2.70;1.40;;;;;;;;;;5047258;28;20479;-73
2022/07/06 06:23:23;;;;;;;3.70;1.60;;;;;;;;;;5047957;28;20865;-73
2022/07/06 06:25:52;;;;;;;3.25;1.90;;;;;;;;;;5031953;28;20427;-73
2022/07/06 06:28:19;;;;;;;3.30;2.97;;;;;;;;;;5046316;28;20433;-72
2022/07/06 06:30:46;;;;;;;2.33;2.00;;;;;;;;;;5047036;28;20615;-74
2022/07/06 06:33:14;;;;;;;3.80;1.85;;;;;;;;;;5048635;28;20425;-73
2022/07/06 06:35:44;;;;;;;5.47;2.10;;;;;;;;;;5046647;28;20432;-74
2022/07/06 06:38:11;;;;;;;3.33;2.00;;;;;;;;;;5046356;28;20449;-74
2022/07/06 06:40:38;;;;;;;3.05;1.67;;;;;;;;;;5046261;28;20424;-74
2022/07/06 06:43:06;;;;;;;4.65;1.90;;;;;;;;;;5046549;28;20939;-76
2022/07/06 06:45:34;;;;;;;3.75;2.00;;;;;;;;;;5046527;28;20413;-73
2022/07/06 06:48:01;;;;;;;2.60;1.30;;;;;;;;;;5044591;28;20553;-74
2022/07/06 06:50:28;;;;;;;2.90;1.58;;;;;;;;;;5044291;28;20433;-73
2022/07/06 06:52:55;;;;;;;5.00;1.50;;;;;;;;;;5045109;28;20814;-74
2022/07/06 06:55:22;;;;;;;3.08;1.15;;;;;;;;;;5045746;28;20440;-74
2022/07/06 06:57:49;;;;;;;2.80;1.30;;;;;;;;;;5046381;28;20881;-74
2022/07/06 07:00:18;;;;;;;2.00;1.20;;;;;;;;;;5044783;28;20431;-74
2022/07/06 07:02:47;;;;;;;3.13;1.00;;;;;;;;;;5044284;28;20447;-74
2022/07/06 07:05:14;;;;;;;2.42;1.02;;;;;;;;;;5046031;28;20509;-74
2022/07/06 07:07:41;;;;;;;2.80;1.38;;;;;;;;;;5045814;28;20420;-74
2022/07/06 07:10:08;;;;;;;2.88;1.30;;;;;;;;;;5045596;28;20433;-74
2022/07/06 07:12:36;;;;;;;2.72;1.40;;;;;;;;;;5045856;28;20413;-74
2022/07/06 07:15:03;;;;;;;2.95;1.30;;;;;;;;;;5047515;28;20433;-74
2022/07/06 07:17:31;;;;;;;2.60;1.40;;;;;;;;;;5047553;28;20414;-73
2022/07/06 07:19:58;;;;;;;3.03;1.10;;;;;;;;;;5044157;28;20432;-73
2022/07/06 07:22:25;;;;;;;1.70;1.38;;;;;;;;;;5047070;28;20508;-74
2022/07/06 07:24:52;;;;;;;2.47;1.30;;;;;;;;;;5046357;28;20409;-74
2022/07/06 07:27:20;;;;;;;3.50;1.50;;;;;;;;;;5046327;28;20413;-74
2022/07/06 07:29:47;;;;;;;2.63;1.20;;;;;;;;;;5044843;28;20433;-74
2022/07/06 07:32:14;;;;;;;2.72;1.10;;;;;;;;;;5045751;28;21072;-74
2022/07/06 07:34:42;;;;;;;2.20;1.00;;;;;;;;;;5045369;28;20525;-75
2022/07/06 07:37:09;;;;;;;2.08;1.00;;;;;;;;;;5045451;28;20425;-76
2022/07/06 07:39:37;;;;;;;2.30;0.90;;;;;;;;;;5043552;28;20445;-75
2022/07/06 07:42:04;;;;;;;2.93;1.00;;;;;;;;;;5044969;28;20421;-76
2022/07/06 07:44:31;;;;;;;3.28;1.08;;;;;;;;;;5043982;28;20443;-76
2022/07/06 07:46:58;;;;;;;2.15;1.02;;;;;;;;;;5045075;28;20519;-76
2022/07/06 07:49:25;;;;;;;1.90;1.10;;;;;;;;;;5045370;28;20490;-75
2022/07/06 07:51:54;;;;;;;1.40;0.80;;;;;;;;;;5045488;28;20421;-75
2022/07/06 07:54:21;;;;;;;1.83;0.82;;;;;;;;;;5044582;28;20444;-74
2022/07/06 07:56:48;;;;;;;2.30;1.00;;;;;;;;;;5045404;28;20781;-75
2022/07/06 07:59:15;;;;;;;3.27;0.90;;;;;;;;;;5045692;28;20431;-74
2022/07/06 08:01:42;;;;;;;1.40;0.73;;;;;;;;;;5045346;28;20429;-74
2022/07/06 08:04:09;;;;;;;2.80;0.70;;;;;;;;;;5043596;28;20433;-73
2022/07/06 08:06:36;;;;;;;1.63;0.95;;;;;;;;;;5044192;28;20473;-73
2022/07/06 08:09:07;;;;;;;2.55;1.00;;;;;;;;;;5044763;28;20433;-75
2022/07/06 08:11:34;;;;;;;2.50;0.70;;;;;;;;;;5037406;23;20465;-73
2022/07/06 08:14:03;;;;;;;2.50;0.90;;;;;;;;;;5010212;28;20519;-72
2022/07/06 08:16:31;;;;;;;2.30;0.80;;;;;;;;;;5011115;28;20511;-73
2022/07/06 08:18:58;;;;;;;1.50;0.80;;;;;;;;;;5010725;28;20452;-74
2022/07/06 08:21:26;;;;;;;2.30;0.80;;;;;;;;;;5010227;28;20428;-72
2022/07/06 08:23:53;;;;;;;1.27;0.70;;;;;;;;;;5010599;28;20532;-73
2022/07/06 08:26:22;;;;;;;1.70;0.60;;;;;;;;;;5011520;28;20492;-75
2022/07/06 08:28:50;;;;;;;1.85;0.80;;;;;;;;;;5013821;28;20444;-73
2022/07/06 08:31:17;;;;;;;1.60;0.77;;;;;;;;;;5014484;28;20421;-73
2022/07/06 08:33:44;;;;;;;3.10;1.03;;;;;;;;;;5011148;28;21452;-73
2022/07/06 08:36:11;;;;;;;2.15;1.00;;;;;;;;;;5013214;28;20460;-73
2022/07/06 08:38:39;;;;;;;2.20;0.90;;;;;;;;;;5012481;28;20420;-73
2022/07/06 08:41:07;;;;;;;2.22;0.90;;;;;;;;;;5010842;28;20514;-72
2022/07/06 08:43:36;;;;;;;1.90;0.80;;;;;;;;;;5011043;28;20507;-73
2022/07/06 08:46:05;;;;;;;1.40;0.80;;;;;;;;;;5012367;28;20428;-73
2022/07/06 08:48:36;;;;;;;1.88;1.00;;;;;;;;;;5013973;28;20420;-72
2022/07/06 08:51:03;;;;;;;2.10;1.00;;;;;;;;;;5010920;28;20579;-72
2022/07/06 08:53:31;;;;;;;2.20;0.90;;;;;;;;;;5013649;28;20866;-72
2022/07/06 08:55:58;;;;;;;1.73;0.80;;;;;;;;;;5013374;28;20460;-73
2022/07/06 08:58:26;;;;;;;2.38;1.10;;;;;;;;;;5013905;28;20405;-73
2022/07/06 09:00:54;;;;;;;2.58;0.80;;;;;;;;;;5011995;28;20708;-74
2022/07/06 09:03:22;;;;;;;1.88;0.90;;;;;;;;;;5014208;28;20416;-73
2022/07/06 09:05:49;;;;;;;3.23;0.93;;;;;;;;;;5014535;28;20492;-72
2022/07/06 09:08:16;;;;;;;2.33;0.85;;;;;;;;;;5014109;28;21184;-73
2022/07/06 09:10:43;;;;;;;2.80;1.50;;;;;;;;;;5010525;28;20436;-74
2022/07/06 09:13:11;;;;;;;3.00;1.00;;;;;;;;;;5004494;28;20440;-72
2022/07/06 09:15:39;;;;;;;1.98;0.80;;;;;;;;;;5018393;28;20523;-73
2022/07/06 09:18:08;;;;;;;2.40;0.90;;;;;;;;;;5009571;28;20434;-72
2022/07/06 09:20:35;;;;;;;2.97;0.93;;;;;;;;;;5020639;28;20445;-73
2022/07/06 09:23:04;;;;;;;3.17;1.17;;;;;;;;;;5014711;28;20464;-73
2022/07/06 09:25:31;;;;;;;2.20;0.90;;;;;;;;;;5017391;28;20423;-73
2022/07/06 09:27:59;;;;;;;2.08;0.90;;;;;;;;;;5016148;28;20515;-73
2022/07/06 09:30:27;;;;;;;1.40;0.90;;;;;;;;;;5021937;28;20471;-72
2022/07/06 09:32:55;;;;;;;1.50;0.85;;;;;;;;;;5024294;28;20437;-73
2022/07/06 09:35:24;;;;;;;2.00;0.90;;;;;;;;;;5037958;28;20517;-73
2022/07/06 09:38:01;;;;;;;2.00;0.90;;;;;;;;;;5037852;28;20526;-73
2022/07/06 09:40:28;;;;;;;1.70;0.60;;;;;;;;;;5016217;28;20420;-74
2022/07/06 09:43:08;;;;;;;2.58;0.90;;;;;;;;;;5011651;28;20467;-74
2022/07/06 09:45:36;;;;;;;1.33;0.90;;;;;;;;;;5016627;28;20413;-73
2022/07/06 09:48:07;;;;;;;2.60;1.00;;;;;;;;;;5027358;28;20450;-72
2022/07/06 09:50:41;;;;;;;1.58;0.73;;;;;;;;;;5015367;28;20435;-73
2022/07/06 09:53:08;;;;;;;2.60;0.80;;;;;;;;;;5000382;28;20432;-72
2022/07/06 09:55:35;;;;;;;2.70;0.70;;;;;;;;;;5009567;28;20432;-72
2022/07/06 09:58:03;;;;;;;1.52;0.90;;;;;;;;;;5025799;28;21279;-72
2022/07/06 10:00:30;;;;;;;3.60;1.00;;;;;;;;;;5014536;28;20531;-74
2022/07/06 10:02:57;;;;;;;3.60;1.30;;;;;;;;;;5011352;28;20432;-72
2022/07/06 10:05:29;;;;;;;2.10;0.82;;;;;;;;;;5027453;28;20415;-73
2022/07/06 10:07:58;;;;;;;2.08;0.80;;;;;;;;;;5022669;28;20431;-73
2022/07/06 10:10:26;;;;;;;1.80;0.80;;;;;;;;;;5012708;28;20444;-73
2022/07/06 10:12:55;;;;;;;2.33;0.88;;;;;;;;;;5017926;28;20445;-72
2022/07/06 10:15:23;;;;;;;2.20;0.90;;;;;;;;;;5006520;28;20442;-75
2022/07/06 10:17:51;;;;;;;3.40;0.80;;;;;;;;;;5020178;28;20415;-74
2022/07/06 10:20:18;;;;;;;2.78;0.73;;;;;;;;;;5016143;28;20437;-74
2022/07/06 10:22:46;;;;;;;1.10;0.75;;;;;;;;;;5012960;28;20420;-73
2022/07/06 10:25:14;;;;;;;1.40;0.60;;;;;;;;;;5011880;28;20417;-73
2022/07/06 10:27:42;;;;;;;1.10;0.80;;;;;;;;;;5014187;28;20452;-73
2022/07/06 10:30:10;;;;;;;2.30;0.73;;;;;;;;;;5011063;28;20496;-73
2022/07/06 10:32:38;;;;;;;2.60;0.80;;;;;;;;;;5013814;28;20842;-73
2022/07/06 10:35:06;;;;;;;2.55;0.68;;;;;;;;;;5011234;28;20432;-72
2022/07/06 10:37:33;;;;;;;1.30;0.85;;;;;;;;;;5008750;28;20945;-73
2022/07/06 10:42:49;;;;;;;2.40;0.90;;;;;;;;;;5030148;28;20398;-74
2022/07/06 10:45:21;;;;;;;1.50;0.60;;;;;;;;;;5010555;28;20979;-73
2022/07/06 10:47:51;;;;;;;2.92;1.10;;;;;;;;;;5010199;28;20498;-74
2022/07/06 10:50:20;;;;;;;2.60;0.75;;;;;;;;;;5016326;28;20500;-73
2022/07/06 10:52:50;;;;;;;2.25;0.90;;;;;;;;;;5024979;28;20430;-73
2022/07/06 10:55:30;;;;;;;2.60;0.70;;;;;;;;;;5010765;28;20905;-74
2022/07/06 10:58:00;;;;;;;2.00;0.65;;;;;;;;;;5017460;28;20909;-74
2022/07/06 11:00:27;;;;;;;1.40;0.70;;;;;;;;;;5015348;28;20428;-73
2022/07/06 11:02:54;;;;;;;1.50;0.60;;;;;;;;;;5023209;28;20914;-73
2022/07/06 11:05:40;;;;;;;1.70;0.70;;;;;;;;;;5012248;28;20425;-74
2022/07/06 11:08:10;;;;;;;1.70;0.60;;;;;;;;;;5010969;28;20514;-75
2022/07/06 11:10:48;;;;;;;1.50;0.70;;;;;;;;;;5012238;28;21141;-74
2022/07/06 11:13:27;;;;;;;2.30;0.80;;;;;;;;;;5010266;28;20417;-74
2022/07/06 11:16:02;;;;;;;1.63;0.60;;;;;;;;;;5009579;28;20479;-74
2022/07/06 11:18:30;;;;;;;2.28;0.70;;;;;;;;;;5014161;28;20459;-74
2022/07/06 11:21:14;;;;;;;1.77;0.60;;;;;;;;;;5003616;28;20906;-75
2022/07/06 11:23:42;;;;;;;2.50;0.90;;;;;;;;;;5011717;28;20420;-75
2022/07/06 11:26:09;;;;;;;1.05;0.60;;;;;;;;;;5009449;28;20421;-73
2022/07/06 11:28:38;;;;;;;0.93;0.68;;;;;;;;;;5023752;28;20533;-73
2022/07/06 11:31:05;;;;;;;2.13;0.60;;;;;;;;;;5013554;28;20468;-75
2022/07/06 11:33:33;;;;;;;1.38;0.60;;;;;;;;;;5026342;28;20421;-76
2022/07/06 11:36:13;;;;;;;1.83;0.70;;;;;;;;;;5020711;28;20511;-75
2022/07/06 11:38:40;;;;;;;1.80;0.90;;;;;;;;;;5014059;28;20498;-74
2022/07/06 11:41:07;;;;;;;1.25;0.60;;;;;;;;;;5003380;28;20515;-75
2022/07/06 11:43:34;;;;;;;1.20;0.60;;;;;;;;;;5010189;28;20424;-75
2022/07/06 11:46:03;;;;;;;1.55;0.70;;;;;;;;;;5008611;28;20528;-74
2022/07/06 11:48:30;;;;;;;3.00;0.90;;;;;;;;;;5015122;28;20422;-72
2022/07/06 11:51:01;;;;;;;2.10;0.60;;;;;;;;;;5011411;28;20467;-73
2022/07/06 11:53:28;;;;;;;2.83;0.80;;;;;;;;;;5010993;28;20401;-73
2022/07/06 11:55:56;;;;;;;2.00;0.70;;;;;;;;;;5009876;28;20432;-75
2022/07/06 11:58:24;;;;;;;1.15;0.75;;;;;;;;;;5014092;28;20914;-73
2022/07/06 12:01:08;;;;;;;1.38;0.80;;;;;;;;;;5008762;28;20442;-75
2022/07/06 12:03:35;;;;;;;1.55;0.80;;;;;;;;;;5013120;28;20443;-73
2022/07/06 12:06:02;;;;;;;1.63;0.73;;;;;;;;;;5024959;28;20912;-73
2022/07/06 12:08:30;;;;;;;2.25;0.80;;;;;;;;;;5009346;28;20444;-74
2022/07/06 12:10:57;;;;;;;1.80;0.80;;;;;;;;;;5010585;28;20425;-75
2022/07/06 12:13:25;;;;;;;3.17;0.80;;;;;;;;;;5020193;28;20423;-74
2022/07/06 12:15:52;;;;;;;1.80;0.60;;;;;;;;;;5000976;28;20445;-72
2022/07/06 12:18:20;;;;;;;3.30;1.27;;;;;;;;;;5015325;28;20563;-74
2022/07/06 12:20:47;;;;;;;2.00;0.80;;;;;;;;;;5008158;28;20795;-73
2022/07/06 12:23:14;;;;;;;2.17;0.73;;;;;;;;;;5020753;28;20425;-75
2022/07/06 12:25:41;;;;;;;1.10;0.70;;;;;;;;;;5028276;28;20427;-74
2022/07/06 12:28:22;;;;;;;0.90;0.70;;;;;;;;;;5013398;28;20448;-73
2022/07/06 12:30:50;;;;;;;3.40;0.90;;;;;;;;;;5050848;28;20486;-77
2022/07/06 12:33:18;;;;;;;1.60;0.70;;;;;;;;;;5054178;28;20461;-72
2022/07/06 12:35:46;;;;;;;1.90;0.80;;;;;;;;;;5046793;28;20439;-74
2022/07/06 12:38:14;;;;;;;1.55;0.80;;;;;;;;;;5034248;28;20415;-74
2022/07/06 12:40:41;;;;;;;1.33;0.75;;;;;;;;;;5032702;28;20469;-76
2022/07/06 12:43:08;;;;;;;1.25;0.80;;;;;;;;;;5034085;28;20420;-74
2022/07/06 12:45:35;;;;;;;1.80;0.90;;;;;;;;;;5034610;28;20435;-73
2022/07/06 12:48:03;;;;;;;2.70;0.80;;;;;;;;;;5015803;28;20432;-73
2022/07/06 12:50:34;;;;;;;1.42;0.77;;;;;;;;;;5011715;28;20787;-74
2022/07/06 12:53:03;;;;;;;3.10;0.90;;;;;;;;;;5023607;28;20415;-74
2022/07/06 12:55:31;;;;;;;1.85;0.70;;;;;;;;;;5019256;28;20427;-73
2022/07/06 12:57:59;;;;;;;2.00;1.00;;;;;;;;;;5008711;28;20436;-73
2022/07/06 13:00:26;;;;;;;1.52;0.80;;;;;;;;;;5033687;28;20418;-73
2022/07/06 13:02:55;;;;;;;1.80;0.80;;;;;;;;;;5018990;28;20420;-73
2022/07/06 13:05:28;;;;;;;1.40;0.80;;;;;;;;;;5025309;28;20419;-74
2022/07/06 13:07:56;;;;;;;1.33;0.90;;;;;;;;;;5017186;28;20443;-74
2022/07/06 13:10:25;;;;;;;1.30;0.70;;;;;;;;;;5014639;28;20486;-74
2022/07/06 13:12:52;;;;;;;1.58;0.80;;;;;;;;;;5026094;28;20463;-74
2022/07/06 13:15:19;;;;;;;1.98;0.80;;;;;;;;;;5014936;28;20420;-75
2022/07/06 13:17:47;;;;;;;2.35;0.80;;;;;;;;;;5017231;28;20513;-74
2022/07/06 13:20:17;;;;;;;0.98;0.73;;;;;;;;;;5027114;28;20426;-73
2022/07/06 13:22:44;;;;;;;2.03;1.17;;;;;;;;;;5009609;28;20505;-75
2022/07/06 13:25:12;;;;;;;2.38;1.00;;;;;;;;;;5033489;28;20450;-75
2022/07/06 13:27:41;;;;;;;2.83;1.15;;;;;;;;;;5008180;28;20468;-73
2022/07/06 13:30:10;;;;;;;1.70;0.90;;;;;;;;;;5016294;28;20428;-75
2022/07/06 13:32:37;;;;;;;1.33;0.68;;;;;;;;;;5020101;28;20436;-73
2022/07/06 13:35:04;;;;;;;3.08;1.00;;;;;;;;;;5020281;28;20427;-73
2022/07/06 13:37:33;;;;;;;2.10;0.80;;;;;;;;;;5016462;28;20444;-72
2022/07/06 13:40:00;;;;;;;1.48;0.90;;;;;;;;;;5009796;28;20771;-74
2022/07/06 13:42:27;;;;;;;1.50;0.90;;;;;;;;;;5014445;28;20500;-75
2022/07/06 13:44:55;;;;;;;2.65;0.70;;;;;;;;;;5021394;28;20494;-74
2022/07/06 13:47:23;;;;;;;1.58;0.70;;;;;;;;;;5015845;28;20429;-74
2022/07/06 13:49:50;;;;;;;1.75;1.05;;;;;;;;;;5019597;28;20962;-75
2022/07/06 13:52:17;;;;;;;2.60;0.90;;;;;;;;;;5024500;28;20521;-74
2022/07/06 13:54:44;;;;;;;2.40;0.90;;;;;;;;;;5037664;28;20415;-73
2022/07/06 13:57:11;;;;;;;2.13;0.90;;;;;;;;;;5020690;28;20479;-75
2022/07/06 13:59:38;;;;;;;0.93;0.70;;;;;;;;;;5024545;28;20432;-73
2022/07/06 14:02:07;;;;;;;1.85;0.60;;;;;;;;;;5017233;28;20423;-74
2022/07/06 14:04:34;;;;;;;1.70;0.80;;;;;;;;;;5023035;28;20689;-73
2022/07/06 14:07:01;;;;;;;1.57;0.70;;;;;;;;;;5015917;28;20951;-74
2022/07/06 14:09:29;;;;;;;1.20;0.60;;;;;;;;;;5013463;28;20486;-73
2022/07/06 14:11:56;;;;;;;2.13;0.70;;;;;;;;;;5055131;23;20902;-76
2022/07/06 14:14:23;;;;;;;1.30;0.60;;;;;;;;;;5048700;28;20483;-78
2022/07/06 14:16:51;;;;;;;1.90;0.70;;;;;;;;;;5049890;28;20449;-76
2022/07/06 14:19:20;;;;;;;2.40;0.70;;;;;;;;;;5056430;28;20875;-78
2022/07/06 14:21:47;;;;;;;1.77;0.50;;;;;;;;;;5071341;28;20479;-78
2022/07/06 14:24:15;;;;;;;0.88;0.50;;;;;;;;;;5070720;28;20440;-78
2022/07/06 14:26:42;;;;;;;0.90;0.50;;;;;;;;;;5051186;28;20448;-78
2022/07/06 14:29:09;;;;;;;1.60;0.50;;;;;;;;;;5048832;28;20508;-77
2022/07/06 14:31:36;;;;;;;2.50;0.80;;;;;;;;;;5045856;28;20436;-76
2022/07/06 14:34:03;;;;;;;2.83;0.70;;;;;;;;;;5047133;28;20440;-77
2022/07/06 14:36:33;;;;;;;1.90;0.82;;;;;;;;;;5046259;28;20437;-77
2022/07/06 14:39:00;;;;;;;1.10;0.50;;;;;;;;;;5039829;28;20460;-77
2022/07/06 14:41:27;;;;;;;1.60;0.70;;;;;;;;;;5046053;28;20887;-78
2022/07/06 14:43:54;;;;;;;1.42;0.60;;;;;;;;;;5050064;28;20757;-76
2022/07/06 14:46:21;;;;;;;2.50;0.98;;;;;;;;;;5050200;28;20897;-78
2022/07/06 14:48:48;;;;;;;2.05;0.70;;;;;;;;;;5048087;28;20424;-77
2022/07/06 14:51:16;;;;;;;3.83;1.10;;;;;;;;;;5046512;28;20417;-77
2022/07/06 14:53:44;;;;;;;1.30;0.60;;;;;;;;;;5049244;28;20420;-77